createdAt,value
2023-04-19T00:01:03.325Z,2.22
2023-04-19T00:03:30.267Z,2.55
2023-04-19T00:05:59.209Z,2.15
2023-04-19T00:08:25.934Z,2.28
2023-04-19T00:10:57.236Z,2.05
2023-04-19T00:13:23.600Z,1.88
2023-04-19T00:15:49.796Z,1.90
2023-04-19T00:18:16.064Z,2.00
2023-04-19T00:20:42.542Z,2.47
2023-04-19T00:23:08.738Z,1.90
2023-04-19T00:25:35.161Z,1.60
2023-04-19T00:28:01.356Z,2.00
2023-04-19T00:30:27.845Z,1.75
2023-04-19T00:32:56.688Z,1.92
2023-04-19T00:35:22.901Z,1.20
2023-04-19T00:37:49.096Z,1.70
2023-04-19T00:40:15.309Z,2.65
2023-04-19T00:42:45.675Z,1.77
2023-04-19T00:45:12.672Z,1.52
2023-04-19T00:47:41.851Z,1.45
2023-04-19T00:50:08.553Z,1.73
2023-04-19T00:52:35.297Z,2.03
2023-04-19T00:55:02.115Z,1.77
2023-04-19T00:57:29.438Z,1.60
2023-04-19T00:59:56.704Z,1.70
2023-04-19T01:02:22.962Z,1.55
2023-04-19T01:04:49.495Z,2.00
2023-04-19T01:07:15.904Z,1.75
2023-04-19T01:09:43.445Z,1.80
2023-04-19T01:12:15.884Z,2.03
2023-04-19T01:14:42.070Z,1.70
2023-04-19T01:17:08.746Z,1.90
2023-04-19T01:19:38.341Z,1.52
2023-04-19T01:22:06.287Z,1.75
2023-04-19T01:24:33.608Z,1.77
2023-04-19T01:26:59.976Z,2.08
2023-04-19T01:29:26.077Z,1.85
2023-04-19T01:31:53.368Z,1.65
2023-04-19T01:34:25.642Z,1.60
2023-04-19T01:36:51.825Z,1.92
2023-04-19T01:39:18.395Z,1.40
2023-04-19T01:41:44.654Z,2.30
2023-04-19T01:44:11.040Z,1.70
2023-04-19T01:46:40.899Z,1.88
2023-04-19T01:49:07.587Z,1.42
2023-04-19T01:51:33.724Z,2.10
2023-04-19T01:54:01.308Z,1.75
2023-04-19T01:56:27.650Z,1.83
2023-04-19T01:58:54.026Z,1.80
2023-04-19T02:01:20.435Z,1.70
2023-04-19T02:03:47.188Z,1.95
2023-04-19T02:06:13.797Z,1.98
2023-04-19T02:08:41.345Z,1.90
2023-04-19T02:11:11.625Z,1.60
2023-04-19T02:13:38.834Z,1.55
2023-04-19T02:16:05.799Z,1.60
2023-04-19T02:18:34.655Z,2.10
2023-04-19T02:21:01.226Z,1.95
2023-04-19T02:23:27.476Z,1.95
2023-04-19T02:25:53.593Z,1.90
2023-04-19T02:28:19.961Z,1.73
2023-04-19T02:30:46.368Z,1.85
2023-04-19T02:33:12.717Z,2.00
2023-04-19T02:35:39.032Z,1.90
2023-04-19T02:38:05.352Z,1.80
2023-04-19T02:40:31.559Z,1.83
2023-04-19T02:43:00.782Z,2.20
2023-04-19T02:45:27.081Z,1.63
2023-04-19T02:47:53.341Z,1.98
2023-04-19T02:50:19.724Z,1.80
2023-04-19T02:52:48.167Z,1.65
2023-04-19T02:55:14.380Z,2.10
2023-04-19T02:57:41.443Z,1.42
2023-04-19T03:00:08.769Z,1.27
2023-04-19T03:02:35.112Z,2.10
2023-04-19T03:05:01.425Z,1.55
2023-04-19T03:07:27.655Z,2.05
2023-04-19T03:09:53.742Z,2.20
2023-04-19T03:12:19.859Z,1.77
2023-04-19T03:14:48.970Z,1.60
2023-04-19T03:17:15.021Z,1.40
2023-04-19T03:19:41.251Z,1.50
2023-04-19T03:22:07.494Z,1.50
2023-04-19T03:24:35.016Z,1.52
2023-04-19T03:27:03.458Z,1.55
2023-04-19T03:29:29.662Z,1.73
2023-04-19T03:31:55.888Z,1.42
2023-04-19T03:34:24.339Z,1.42
2023-04-19T03:36:50.597Z,2.08
2023-04-19T03:39:16.699Z,1.20
2023-04-19T03:41:42.924Z,1.50
2023-04-19T03:44:09.087Z,1.30
2023-04-19T03:46:35.639Z,1.67
2023-04-19T03:49:02.027Z,1.38
2023-04-19T03:51:28.146Z,1.30
2023-04-19T03:53:54.310Z,1.60
2023-04-19T03:56:20.524Z,1.83
2023-04-19T03:58:46.724Z,1.50
2023-04-19T04:01:18.422Z,1.52
2023-04-19T04:03:44.790Z,1.40
2023-04-19T04:06:11.178Z,1.30
2023-04-19T04:08:39.868Z,1.60
2023-04-19T04:11:09.066Z,1.83
2023-04-19T04:13:35.369Z,2.08
2023-04-19T04:16:01.741Z,1.65
2023-04-19T04:18:28.187Z,1.50
2023-04-19T04:20:54.516Z,1.50
2023-04-19T04:23:24.905Z,1.58
2023-04-19T04:26:00.967Z,1.48
2023-04-19T04:28:27.950Z,2.25
2023-04-19T04:30:57.618Z,1.70
2023-04-19T04:33:28.005Z,1.58
2023-04-19T04:35:55.973Z,1.83
2023-04-19T04:38:25.042Z,1.73
2023-04-19T04:40:55.309Z,1.73
2023-04-19T04:43:23.246Z,1.60
2023-04-19T04:45:49.759Z,1.85
2023-04-19T04:48:15.965Z,1.98
2023-04-19T04:50:42.179Z,1.80
2023-04-19T04:53:08.470Z,1.60
2023-04-19T04:55:34.804Z,1.55
2023-04-19T04:58:05.235Z,1.80
2023-04-19T05:00:32.248Z,1.98
2023-04-19T05:02:59.538Z,1.98
2023-04-19T05:05:27.468Z,1.63
2023-04-19T05:07:53.594Z,1.83
2023-04-19T05:10:19.812Z,1.50
2023-04-19T05:12:45.976Z,1.80
2023-04-19T05:15:12.164Z,1.35
2023-04-19T05:17:38.365Z,1.30
2023-04-19T05:20:05.615Z,1.30
2023-04-19T05:22:34.824Z,1.63
2023-04-19T05:25:01.852Z,1.80
2023-04-19T05:27:28.028Z,1.42
2023-04-19T05:29:54.097Z,1.30
2023-04-19T05:32:20.544Z,1.23
2023-04-19T05:34:46.772Z,1.25
2023-04-19T05:37:13.109Z,1.60
2023-04-19T05:39:40.612Z,1.58
2023-04-19T05:42:08.025Z,1.23
2023-04-19T05:44:35.218Z,1.67
2023-04-19T05:47:01.447Z,1.20
2023-04-19T05:49:27.574Z,1.50
2023-04-19T05:51:55.340Z,1.48
2023-04-19T05:54:21.743Z,1.40
2023-04-19T05:56:48.042Z,1.33
2023-04-19T05:59:14.220Z,1.08
2023-04-19T06:01:41.273Z,1.30
2023-04-19T06:04:07.831Z,1.33
2023-04-19T06:06:34.409Z,1.40
2023-04-19T06:09:00.900Z,1.58
2023-04-19T06:11:35.175Z,1.35
2023-04-19T06:14:05.832Z,1.45
2023-04-19T06:16:40.895Z,1.88
2023-04-19T06:19:10.090Z,1.60
2023-04-19T06:21:38.423Z,1.25
2023-04-19T06:24:11.322Z,1.27
2023-04-19T06:26:37.806Z,1.60
2023-04-19T06:29:03.977Z,1.38
2023-04-19T06:31:30.500Z,1.17
2023-04-19T06:33:56.808Z,1.30
2023-04-19T06:36:24.073Z,1.40
2023-04-19T06:38:53.155Z,1.50
2023-04-19T06:41:19.917Z,1.30
2023-04-19T06:43:46.234Z,1.23
2023-04-19T06:46:14.408Z,1.20
2023-04-19T06:48:41.065Z,1.17
2023-04-19T06:51:07.599Z,1.13
2023-04-19T06:53:34.391Z,1.33
2023-04-19T06:56:01.614Z,1.63
2023-04-19T06:58:28.692Z,1.20
2023-04-19T07:00:55.202Z,1.70
2023-04-19T07:03:21.662Z,1.30
2023-04-19T07:05:48.342Z,1.00
2023-04-19T07:08:16.550Z,1.45
2023-04-19T07:10:43.527Z,1.05
2023-04-19T07:13:11.211Z,1.23
2023-04-19T07:15:37.672Z,1.20
2023-04-19T07:18:03.944Z,1.00
2023-04-19T07:20:33.707Z,0.90
2023-04-19T07:23:03.003Z,1.13
2023-04-19T07:25:29.148Z,1.13
2023-04-19T07:27:56.197Z,1.05
2023-04-19T07:30:22.433Z,1.23
2023-04-19T07:32:51.440Z,1.13
2023-04-19T07:35:19.088Z,1.30
2023-04-19T07:37:45.341Z,1.27
2023-04-19T07:40:12.446Z,1.17
2023-04-19T07:42:38.546Z,1.35
2023-04-19T07:45:05.499Z,0.98
2023-04-19T07:47:31.845Z,1.20
2023-04-19T07:49:58.194Z,1.02
2023-04-19T07:52:24.438Z,1.80
2023-04-19T07:54:50.736Z,1.50
2023-04-19T07:57:17.144Z,1.15
2023-04-19T07:59:46.659Z,1.10
2023-04-19T08:02:15.446Z,1.10
2023-04-19T08:04:44.408Z,1.23
2023-04-19T08:07:14.328Z,1.17
2023-04-19T08:09:40.552Z,1.20
2023-04-19T08:12:06.965Z,1.30
2023-04-19T08:14:43.921Z,1.40
2023-04-19T08:17:24.096Z,0.85
2023-04-19T08:19:52.226Z,1.60
2023-04-19T08:22:19.669Z,1.33
2023-04-19T08:24:45.797Z,1.48
2023-04-19T08:27:11.908Z,1.33
2023-04-19T08:29:41.234Z,1.55
2023-04-19T08:32:07.497Z,1.38
2023-04-19T08:34:37.075Z,1.38
2023-04-19T08:37:04.950Z,1.50
2023-04-19T08:39:33.606Z,1.20
2023-04-19T08:42:13.096Z,1.65
2023-04-19T08:45:13.099Z,2.10
2023-04-19T08:47:44.886Z,1.77
2023-04-19T08:50:32.136Z,1.42
2023-04-19T08:53:12.394Z,2.05
2023-04-19T08:56:06.799Z,1.95
2023-04-19T08:58:46.470Z,1.75
2023-04-19T09:01:34.998Z,1.83
2023-04-19T09:04:26.508Z,1.50
2023-04-19T09:06:54.265Z,1.63
2023-04-19T09:11:50.931Z,1.98
2023-04-19T09:14:19.013Z,2.03
2023-04-19T09:16:45.646Z,1.50
2023-04-19T09:19:23.457Z,1.52
2023-04-19T09:21:55.321Z,1.83
2023-04-19T09:25:04.412Z,1.60
2023-04-19T09:27:29.849Z,1.77
2023-04-19T09:29:57.206Z,2.05
2023-04-19T09:32:23.862Z,1.50
2023-04-19T09:34:58.546Z,1.60
2023-04-19T09:39:59.211Z,1.33
2023-04-19T09:43:06.952Z,1.45
2023-04-19T09:45:44.510Z,1.80
2023-04-19T09:48:12.224Z,1.60
2023-04-19T09:51:00.776Z,1.60
2023-04-19T09:53:33.585Z,1.50
2023-04-19T09:56:02.344Z,1.73
2023-04-19T09:58:41.732Z,1.63
2023-04-19T10:01:23.057Z,1.88
2023-04-19T10:03:50.492Z,2.10
2023-04-19T10:08:49.507Z,1.90
2023-04-19T10:11:16.012Z,2.00
2023-04-19T10:13:43.188Z,1.85
2023-04-19T10:16:18.936Z,1.42
2023-04-19T10:18:49.221Z,1.85
2023-04-19T10:21:15.478Z,1.70
2023-04-19T10:23:42.010Z,2.30
2023-04-19T10:26:08.105Z,1.65
2023-04-19T10:28:35.783Z,1.80
2023-04-19T10:31:03.552Z,1.98
2023-04-19T10:33:41.696Z,1.92
2023-04-19T10:36:14.492Z,2.00
2023-04-19T10:38:43.843Z,1.98
2023-04-19T10:41:16.485Z,2.00
2023-04-19T10:43:48.412Z,1.83
2023-04-19T10:46:37.514Z,1.92
2023-04-19T10:49:05.153Z,1.65
2023-04-19T10:51:43.881Z,1.77
2023-04-19T10:54:34.202Z,1.80
2023-04-19T10:57:10.811Z,1.63
2023-04-19T10:59:38.277Z,2.50
2023-04-19T11:02:25.460Z,1.90
2023-04-19T11:04:54.287Z,1.90
2023-04-19T11:07:23.452Z,2.50
2023-04-19T11:09:50.703Z,1.52
2023-04-19T11:12:18.882Z,1.70
2023-04-19T11:14:52.415Z,2.08
2023-04-19T11:17:30.939Z,1.77
2023-04-19T11:20:09.016Z,1.98
2023-04-19T11:22:40.258Z,1.58
2023-04-19T11:25:14.495Z,2.17
2023-04-19T11:27:42.458Z,1.75
2023-04-19T11:30:11.070Z,1.85
2023-04-19T11:32:37.456Z,2.15
2023-04-19T11:35:07.817Z,1.80
2023-04-19T11:37:36.339Z,1.80
2023-04-19T11:40:05.046Z,2.15
2023-04-19T11:42:32.622Z,1.88
2023-04-19T11:44:59.543Z,1.95
2023-04-19T11:47:29.148Z,2.15
2023-04-19T11:49:58.818Z,1.65
2023-04-19T11:52:27.756Z,2.08
2023-04-19T11:54:54.107Z,1.80
2023-04-19T11:57:30.904Z,1.92
2023-04-19T12:00:11.291Z,2.03
2023-04-19T12:02:42.891Z,1.90
2023-04-19T12:05:14.720Z,1.92
2023-04-19T12:08:03.897Z,1.77
2023-04-19T12:10:31.516Z,2.15
2023-04-19T12:12:57.902Z,1.45
2023-04-19T12:15:26.459Z,1.92
2023-04-19T12:18:01.550Z,1.90
2023-04-19T12:20:35.875Z,1.88
2023-04-19T12:23:02.483Z,2.10
2023-04-19T12:25:33.032Z,2.25
2023-04-19T12:28:04.890Z,1.90
2023-04-19T12:30:33.254Z,2.30
2023-04-19T12:32:59.376Z,2.05
2023-04-19T12:35:28.980Z,1.85
2023-04-19T12:37:57.260Z,1.88
2023-04-19T12:40:24.107Z,1.58
2023-04-19T12:42:50.535Z,2.17
2023-04-19T12:45:17.809Z,2.13
2023-04-19T12:47:44.941Z,2.78
2023-04-19T12:50:14.790Z,2.20
2023-04-19T12:52:42.108Z,2.50
2023-04-19T12:55:08.865Z,2.70
2023-04-19T12:57:35.115Z,2.53
2023-04-19T13:00:01.368Z,2.70
2023-04-19T13:02:27.853Z,1.75
2023-04-19T13:04:54.453Z,2.15
2023-04-19T13:07:20.823Z,1.77
2023-04-19T13:09:46.997Z,2.13
2023-04-19T13:12:13.288Z,1.60
2023-04-19T13:14:39.731Z,2.10
2023-04-19T13:17:05.995Z,2.05
2023-04-19T13:19:32.357Z,2.30
2023-04-19T13:22:01.128Z,2.35
2023-04-19T13:24:27.265Z,1.80
2023-04-19T13:26:53.733Z,2.08
2023-04-19T13:29:19.942Z,2.42
2023-04-19T13:31:46.712Z,2.75
2023-04-19T13:34:14.548Z,2.28
2023-04-19T13:36:40.810Z,2.20
2023-04-19T13:39:08.385Z,2.22
2023-04-19T13:41:35.501Z,2.08
2023-04-19T13:44:01.681Z,2.70
2023-04-19T13:46:27.861Z,2.20
2023-04-19T13:48:54.016Z,2.10
2023-04-19T13:51:20.197Z,1.98
2023-04-19T13:53:46.317Z,2.90
2023-04-19T13:56:12.592Z,2.13
2023-04-19T13:58:38.665Z,2.55
2023-04-19T14:01:05.071Z,2.55
2023-04-19T14:03:31.780Z,2.08
2023-04-19T14:05:58.413Z,1.88
2023-04-19T14:08:24.767Z,2.03
2023-04-19T14:10:51.299Z,2.25
2023-04-19T14:13:17.468Z,2.63
2023-04-19T14:15:43.721Z,2.70
2023-04-19T14:18:09.877Z,2.35
2023-04-19T14:20:36.093Z,2.10
2023-04-19T14:23:02.454Z,2.45
2023-04-19T14:25:28.624Z,2.90
2023-04-19T14:27:54.770Z,2.53
2023-04-19T14:30:21.163Z,2.40
2023-04-19T14:32:49.441Z,2.47
2023-04-19T14:35:15.889Z,3.00
2023-04-19T14:37:42.068Z,2.03
2023-04-19T14:40:08.895Z,2.42
2023-04-19T14:42:35.340Z,2.90
2023-04-19T14:45:01.909Z,2.47
2023-04-19T14:47:28.179Z,2.47
2023-04-19T14:49:54.641Z,3.03
2023-04-19T14:52:21.035Z,2.45
2023-04-19T14:54:50.133Z,3.10
2023-04-19T14:57:16.406Z,3.50
2023-04-19T14:59:42.568Z,2.70
2023-04-19T15:02:10.458Z,2.78
2023-04-19T15:04:40.740Z,3.22
2023-04-19T15:07:07.603Z,3.20
2023-04-19T15:09:33.857Z,2.90
2023-04-19T15:12:03.755Z,3.63
2023-04-19T15:14:30.066Z,2.95
2023-04-19T15:17:04.784Z,2.80
2023-04-19T15:19:31.856Z,2.72
2023-04-19T15:21:58.005Z,3.30
2023-04-19T15:24:24.322Z,2.50
2023-04-19T15:26:55.479Z,2.58
2023-04-19T15:29:21.613Z,3.58
2023-04-19T15:31:47.947Z,4.05
2023-04-19T15:34:14.198Z,3.88
2023-04-19T15:36:40.620Z,4.05
2023-04-19T15:39:07.394Z,3.53
2023-04-19T15:41:35.801Z,3.80
2023-04-19T15:44:02.055Z,4.80
2023-04-19T15:46:31.000Z,3.80
2023-04-19T15:48:57.160Z,3.58
2023-04-19T15:51:23.258Z,3.83
2023-04-19T15:53:49.819Z,4.22
2023-04-19T15:56:15.980Z,3.55
2023-04-19T15:58:44.033Z,3.67
2023-04-19T16:01:11.686Z,3.70
2023-04-19T16:03:38.294Z,3.58
2023-04-19T16:06:04.724Z,4.07
2023-04-19T16:08:31.197Z,3.75
2023-04-19T16:10:58.212Z,3.38
2023-04-19T16:13:25.520Z,3.80
2023-04-19T16:15:52.256Z,3.50
2023-04-19T16:18:18.978Z,4.35
2023-04-19T16:20:46.219Z,3.65
2023-04-19T16:23:14.090Z,4.28
2023-04-19T16:25:42.835Z,3.65
2023-04-19T16:28:09.437Z,3.72
2023-04-19T16:30:35.677Z,4.65
2023-04-19T16:33:03.534Z,4.05
2023-04-19T16:35:30.050Z,4.03
2023-04-19T16:37:57.570Z,3.55
2023-04-19T16:40:24.151Z,4.15
2023-04-19T16:42:50.356Z,4.43
2023-04-19T16:45:17.493Z,5.20
2023-04-19T16:47:45.625Z,4.20
2023-04-19T16:50:12.764Z,4.20
2023-04-19T16:52:39.456Z,4.43
2023-04-19T16:55:06.646Z,4.32
2023-04-19T16:57:32.815Z,4.10
2023-04-19T16:59:59.199Z,3.83
2023-04-19T17:02:25.778Z,3.70
2023-04-19T17:04:52.440Z,4.07
2023-04-19T17:07:18.792Z,3.53
2023-04-19T17:09:46.131Z,4.43
2023-04-19T17:12:12.249Z,4.03
2023-04-19T17:14:38.897Z,4.32
2023-04-19T17:17:06.255Z,4.22
2023-04-19T17:19:35.594Z,4.53
2023-04-19T17:22:04.920Z,4.47
2023-04-19T17:24:32.342Z,4.88
2023-04-19T17:26:59.150Z,3.80
2023-04-19T17:29:25.579Z,4.22
2023-04-19T17:31:51.674Z,4.00
2023-04-19T17:34:18.247Z,3.55
2023-04-19T17:36:44.723Z,4.10
2023-04-19T17:39:11.164Z,4.03
2023-04-19T17:41:37.318Z,3.83
2023-04-19T17:44:05.588Z,2.63
2023-04-19T17:46:31.821Z,3.42
2023-04-19T17:48:58.189Z,3.63
2023-04-19T17:51:24.500Z,3.63
2023-04-19T17:53:51.180Z,3.83
2023-04-19T17:56:17.549Z,3.65
2023-04-19T17:58:43.799Z,3.20
2023-04-19T18:01:10.182Z,4.22
2023-04-19T18:03:40.177Z,2.97
2023-04-19T18:06:11.610Z,2.95
2023-04-19T18:08:40.989Z,3.42
2023-04-19T18:11:07.234Z,3.72
2023-04-19T18:13:33.454Z,4.07
2023-04-19T18:16:02.635Z,2.95
2023-04-19T18:18:29.342Z,4.22
2023-04-19T18:20:55.636Z,4.15
2023-04-19T18:23:24.422Z,3.97
2023-04-19T18:25:57.336Z,4.10
2023-04-19T18:28:23.708Z,3.88
2023-04-19T18:30:51.213Z,3.30
2023-04-19T18:33:20.390Z,3.55
2023-04-19T18:35:47.553Z,3.70
2023-04-19T18:38:14.251Z,4.25
2023-04-19T18:40:40.592Z,3.95
2023-04-19T18:43:06.731Z,4.15
2023-04-19T18:45:33.325Z,4.15
2023-04-19T18:48:03.408Z,4.03
2023-04-19T18:50:32.502Z,4.40
2023-04-19T18:52:59.014Z,4.93
2023-04-19T18:55:26.721Z,5.25
2023-04-19T18:57:53.296Z,5.32
2023-04-19T19:00:22.978Z,5.57
2023-04-19T19:02:49.517Z,5.70
2023-04-19T19:05:16.028Z,6.00
2023-04-19T19:07:45.704Z,6.15
2023-04-19T19:10:18.245Z,5.78
2023-04-19T19:12:47.949Z,5.55
2023-04-19T19:15:14.627Z,5.88
2023-04-19T19:17:41.132Z,5.75
2023-04-19T19:20:09.473Z,6.80
2023-04-19T19:22:38.284Z,6.60
2023-04-19T19:25:06.109Z,7.15
2023-04-19T19:27:32.933Z,6.90
2023-04-19T19:29:59.825Z,6.95
2023-04-19T19:32:26.811Z,6.82
2023-04-19T19:34:56.647Z,7.13
2023-04-19T19:37:27.510Z,7.22
2023-04-19T19:39:56.269Z,7.50
2023-04-19T19:42:23.091Z,7.10
2023-04-19T19:44:54.337Z,7.88
2023-04-19T19:47:21.429Z,8.55
2023-04-19T19:50:20.402Z,8.48
2023-04-19T19:52:34.257Z,8.13
2023-04-19T19:55:03.487Z,9.18
2023-04-19T19:58:19.055Z,9.02
2023-04-19T20:00:40.033Z,8.80
2023-04-19T20:03:06.028Z,9.18
2023-04-19T20:05:33.212Z,8.52
2023-04-19T20:08:09.761Z,9.60
2023-04-19T20:10:37.368Z,9.85
2023-04-19T20:13:05.686Z,9.48
2023-04-19T20:15:32.953Z,10.98
2023-04-19T20:17:59.179Z,10.35
2023-04-19T20:20:25.527Z,10.43
2023-04-19T20:22:54.656Z,10.82
2023-04-19T20:25:20.845Z,10.25
2023-04-19T20:27:47.067Z,10.20
2023-04-19T20:30:18.265Z,10.95
2023-04-19T20:32:49.941Z,12.85
2023-04-19T20:35:16.207Z,11.68
2023-04-19T20:37:42.435Z,11.05
2023-04-19T20:40:11.876Z,10.88
2023-04-19T20:42:38.327Z,10.68
2023-04-19T20:45:06.472Z,10.32
2023-04-19T20:47:33.131Z,10.38
2023-04-19T20:49:59.503Z,10.25
2023-04-19T20:52:25.738Z,10.05
2023-04-19T20:54:51.955Z,9.88
2023-04-19T20:57:18.229Z,10.45
2023-04-19T20:59:45.017Z,9.00
2023-04-19T21:02:14.038Z,8.82
2023-04-19T21:04:42.057Z,9.25
2023-04-19T21:07:08.866Z,9.65
2023-04-19T21:09:35.402Z,9.13
2023-04-19T21:12:09.279Z,9.88
2023-04-19T21:14:35.562Z,9.65
2023-04-19T21:17:03.314Z,9.63
2023-04-19T21:19:30.004Z,9.32
2023-04-19T21:21:56.393Z,9.90
2023-04-19T21:24:22.652Z,8.88
2023-04-19T21:26:49.041Z,8.00
2023-04-19T21:29:15.708Z,9.25
2023-04-19T21:31:42.223Z,8.68
2023-04-19T21:34:08.456Z,8.80
2023-04-19T21:36:34.725Z,8.77
2023-04-19T21:39:01.042Z,8.43
2023-04-19T21:41:27.200Z,8.95
2023-04-19T21:43:53.448Z,9.13
2023-04-19T21:46:22.343Z,7.15
2023-04-19T21:48:48.637Z,8.77
2023-04-19T21:51:14.903Z,8.70
2023-04-19T21:53:41.390Z,8.20
2023-04-19T21:56:08.373Z,8.95
2023-04-19T21:58:34.483Z,8.43
2023-04-19T22:01:00.808Z,8.82
2023-04-19T22:03:27.489Z,7.82
2023-04-19T22:05:53.828Z,8.63
2023-04-19T22:08:21.634Z,9.05
2023-04-19T22:10:49.922Z,8.23
2023-04-19T22:13:21.253Z,8.60
2023-04-19T22:15:47.488Z,8.68
2023-04-19T22:18:13.618Z,8.35
2023-04-19T22:20:42.882Z,8.65
2023-04-19T22:23:09.126Z,9.38
2023-04-19T22:25:41.208Z,8.98
2023-04-19T22:28:07.878Z,9.15
2023-04-19T22:30:34.259Z,9.40
2023-04-19T22:33:00.655Z,8.95
2023-04-19T22:35:26.806Z,8.93
2023-04-19T22:37:52.919Z,8.88
2023-04-19T22:40:19.122Z,8.95
2023-04-19T22:42:45.404Z,7.90
2023-04-19T22:45:11.803Z,7.50
2023-04-19T22:47:38.547Z,7.60
2023-04-19T22:50:05.209Z,8.02
2023-04-19T22:52:32.871Z,7.25
2023-04-19T22:54:59.058Z,8.30
2023-04-19T22:57:25.210Z,7.60
2023-04-19T22:59:51.610Z,7.75
2023-04-19T23:02:17.742Z,7.07
2023-04-19T23:04:44.186Z,8.13
2023-04-19T23:07:13.368Z,7.75
2023-04-19T23:09:41.354Z,7.53
2023-04-19T23:12:08.191Z,7.03
2023-04-19T23:14:34.536Z,6.53
2023-04-19T23:17:02.283Z,6.43
2023-04-19T23:19:28.568Z,6.95
2023-04-19T23:21:54.663Z,6.78
2023-04-19T23:24:20.856Z,6.78
2023-04-19T23:26:47.138Z,6.60
2023-04-19T23:29:13.370Z,6.38
2023-04-19T23:31:39.670Z,6.63
2023-04-19T23:34:06.025Z,6.43
2023-04-19T23:36:32.210Z,5.97
2023-04-19T23:38:58.547Z,6.43
2023-04-19T23:41:25.301Z,6.60
2023-04-19T23:43:54.136Z,6.82
2023-04-19T23:46:20.364Z,5.55
2023-04-19T23:48:49.755Z,5.50
2023-04-19T23:51:17.410Z,5.80
2023-04-19T23:53:43.744Z,6.85
2023-04-19T23:56:10.454Z,5.93
2023-04-19T23:58:36.503Z,6.00
